Airfield :
LOGIN :

Register | Disclaimer

   EN    FR    IT 

 










Legend :    VFR   Marginal VFR   IFR   Intensive IFR   Very Intensive IFR
Visi :
Ceiling :
>= 8 km
>= 3000ft
5 to 8 km
1000 to 3000 ft
1500m to 5 km
500 to 1000 ft
800 to 1500m
200 to 500 ft
< 800m
< 200 ft
Symbols :   Thunderstorms  Fog  Heavy snow  Heavy precipitations  Wind > 20 kt
SIGMETs :     Misc.  Thunderstorms  Icing  Turbulence  Mountain Waves  Volcanic Ashes






- Airport Elevation : 3125 ft
- IATA code : ESB


LTAC - Ankara Esenboga

CURRENT METAR :
  • 071020Z 17012KT 9999 FEW040 31/02 Q1013 BECMG VRB02KT

EXPIRED METARs :
  • 070950Z 15010KT 9999 FEW040 29/04 Q1013 NOSIG RMK RWY21L 15010KT 110V220 RWY03L 14008KT 110V180 RWY21R 16009KT 100V190
  • 070920Z 17010KT 130V200 CAVOK 29/04 Q1013 NOSIG RMK RWY21L 14010KT 100V170 RWY03L 17009KT 130V200 RWY21R 14010KT
  • 070850Z 15010KT 120V180 CAVOK 29/05 Q1013 NOSIG RMK RWY21L 13009KT 090V160 RWY03L 15008KT 110V190 RWY21R 14010KT 100V190
  • 070820Z 15007KT CAVOK 28/05 Q1013 NOSIG RMK RWY21L 14008KT 100V190 RWY03L 14007KT 080V190 RWY21R 15008KT 110V180
  • 070750Z 15006KT CAVOK 27/06 Q1014 NOSIG RMK RWY21L 14006KT 070V210 RWY03L 13004KT 050V190 RWY21R 15006KT 110V190

TAF TAF LTAC
Valid from the 07 at 06:00 until the 08 at 06:00 UTC


070440Z 0706/0806 VRB02KT CAVOK
BECMG 0708/0710 FEW040
TEMPO 0710/0714 18012KT
BECMG 0714/0716 CAVOK



MET'MAP, your aeronautical weather chart ! - Copyright ORBIFLY December 2007 - Disclaimer

ORBIFLY MET'MAP TEAM :

Programming & Development : Alexandra Zaïnal
Concept & original design : Baudouin d'Aumeries
Assistance for programming : Marc-Olivier Méhu
Technical & hardware support : Manuel Goepfert

Contact : metmap@orbifly.com




SOURCES & CREDITS :

   NOAA